• Join FlightAware (Why Join?)
  • Login
  • US Flag 
08:54PM EDT


 

Airport Tracker/Info


-or-


 

Live Flight TrackerFlight Track Log ✈ SWA1802 ✈ 10-Jun-2013 ✈ KMDW - KLAX

Flight Track Log - Related Links

Times and Time Zones

All times are in EDT time to prevent confusion due to time zone crossing. See the SWA1802 flight status page for this flight to view local times or setup timezone preferences in your user account.

Time Position Orientation Groundspeed Altitude Reporting Facility
EDT Latitude Longitude Course Direction KTS MPH feet Rate Location/Type
07:36PM 41.8167 -87.7333 270° West 179 206 2,100  Level Chicago TRACON
07:37PM 41.8167 -87.8000 270° West 237 273 3,100 660 Climbing Chicago TRACON
07:38PM 41.7994 -87.8542 247° West 234 269 3,200 780 Climbing Chicago Center
07:39PM 41.7722 -87.9308 245° Southwest 231 266 4,500 1,560 Climbing Chicago Center
07:40PM 41.7614 -88.0236 261° West 253 291 6,500 1,860 Climbing Chicago Center
07:41PM 41.7556 -88.1214 265° West 265 305 8,400 2,040 Climbing Chicago Center
07:42PM 41.7472 -88.2431 265° West 276 318 10,800 1,680 Climbing Chicago Center
07:43PM 41.7369 -88.3650 264° West 326 375 12,000 1,740 Climbing Chicago Center
07:44PM 41.7228 -88.4978 262° West 361 415 14,400 2,220 Climbing Chicago Center
07:45PM 41.7058 -88.6367 261° West 379 436 16,600 2,160 Climbing Chicago Center
07:46PM 41.7078 -88.7769 271° West 384 442 18,900 2,400 Climbing Chicago Center
07:47PM 41.6878 -88.9475 261° West 393 452 21,600 2,160 Climbing Chicago Center
07:48PM 41.6756 -89.0928 264° West 397 457 23,400 1,500 Climbing Chicago Center
07:49PM 41.6597 -89.2431 262° West 412 474 24,800 1,260 Climbing Chicago Center
07:50PM 41.6386 -89.3975 260° West 424 488 26,100 1,500 Climbing Chicago Center
07:51PM 41.6147 -89.5858 260° West 432 497 28,000 1,500 Climbing Chicago Center
07:52PM 41.5939 -89.7478 260° West 441 507 29,300 1,260 Climbing Chicago Center
07:53PM 41.5719 -89.9067 260° West 440 506 30,700 1,260 Climbing Chicago Center
07:54PM 41.5508 -90.0664 260° West 439 505 32,000 1,140 Climbing Chicago Center
07:55PM 41.5286 -90.2256 259° West 439 505 33,100 960 Climbing Chicago Center
07:56PM 41.5064 -90.3836 259° West 438 504 34,100 960 Climbing Chicago Center
07:57PM 41.4800 -90.5756 260° West 439 505 35,200 900 Climbing Chicago Center
07:58PM 41.4578 -90.7336 259° West 438 504 36,000 360 Climbing Chicago Center
07:59PM 41.4356 -90.8894 259° West 432 497 36,000  Level Chicago Center
08:00PM 41.4128 -91.0472 259° West 434 499 36,000  Level Chicago Center
08:01PM 41.3897 -91.2025 259° West 431 496 36,000  Level Chicago Center
08:02PM 41.3647 -91.3778 259° West 431 496 36,000  Level Chicago Center
08:03PM 41.3417 -91.5347 259° West 433 498 36,000  Level Chicago Center
08:04PM 41.3183 -91.6906 259° West 433 498 36,000  Level Chicago Center
08:05PM 41.2942 -91.8478 258° West 435 501 36,000  Level Chicago Center
08:07PM 41.2650 -92.0367 258° West 437 503 36,000  Level Chicago Center
08:08PM 41.2414 -92.1931 259° West 435 501 36,000  Level Chicago Center
08:09PM 41.2153 -92.3583 258° West 434 499 36,000  Level Chicago Center
08:10PM 41.1911 -92.5131 258° West 434 499 36,000  Level Chicago Center
08:11PM 41.1661 -92.6653 258° West 430 495 36,000  Level Chicago Center
08:12PM 41.1419 -92.8183 258° West 429 494 36,000  Level Chicago Center
08:13PM 41.1122 -93.0003 258° West 427 491 36,000  Level Chicago Center
08:14PM 41.0872 -93.1533 258° West 428 493 36,000  Level Minneapolis Center
08:15PM 41.0642 -93.3008 258° West 420 483 36,000  Level Minneapolis Center
08:16PM 41.0386 -93.4531 257° West 425 489 36,000  Level Minneapolis Center
08:17PM 41.0133 -93.6061 258° West 429 494 36,000  Level Minneapolis Center
08:18PM 40.9814 -93.7894 257° West 430 495 36,000  Level Minneapolis Center
08:19PM 40.9558 -93.9411 257° West 429 494 36,000  Level Minneapolis Center
08:20PM 40.9303 -94.0917 257° West 426 490 36,000  Level Minneapolis Center
08:21PM 40.9042 -94.2433 257° West 427 491 36,000  Level Minneapolis Center
08:22PM 40.8758 -94.3953 256° West 427 491 36,000  Level Minneapolis Center
08:23PM 40.8433 -94.5708 256° West 427 491 36,000  Level Minneapolis Center
08:24PM 40.8158 -94.7253 257° West 430 495 36,000  Level Minneapolis Center
08:25PM 40.7886 -94.8800 257° West 430 495 36,000  Level Minneapolis Center
08:26PM 40.7614 -95.0306 257° West 426 490 36,000  Level Minneapolis Center
08:27PM 40.7339 -95.1822 257° West 425 489 36,000  Level Minneapolis Center
08:28PM 40.7044 -95.3375 256° West 430 495 36,000  Level Minneapolis Center
08:29PM 40.6767 -95.4889 256° West 427 491 36,000  Level Minneapolis Center
08:30PM 40.6436 -95.6678 256° West 420 483 36,000  Level Minneapolis Center
08:31PM 40.6147 -95.8158 256° West 418 481 36,000  Level Minneapolis Center
08:32PM 40.5869 -95.9650 256° West 418 481 36,000  Level Minneapolis Center
08:33PM 40.5583 -96.1139 256° West 419 482 36,000  Level Minneapolis Center
08:34PM 40.5292 -96.2622 256° West 418 481 36,000  Level Minneapolis Center
08:35PM 40.5014 -96.4108 256° West 418 481 36,000  Level Minneapolis Center
08:36PM 40.4722 -96.5594 256° West 419 482 36,000  Level Minneapolis Center
08:37PM 40.4436 -96.7056 256° West 416 479 36,000  Level Minneapolis Center
08:38PM 40.4075 -96.8836 255° West 419 482 36,000  Level Minneapolis Center
08:39PM 40.3783 -97.0314 256° West 420 483 36,000  Level Minneapolis Center
08:41PM 40.3478 -97.1797 255° West 420 483 36,000  Level Minneapolis Center
08:42PM 40.3175 -97.3289 255° West 422 486 36,000  Level Minneapolis Center
08:43PM 40.2836 -97.4967 255° West 422 486 36,000  Level Minneapolis Center
08:44PM 40.2522 -97.6461 255° West 424 488 36,000  Level Minneapolis Center
08:45PM 40.2219 -97.7942 255° West 422 486 36,000  Level Minneapolis Center
08:46PM 40.1903 -97.9414 254° West 420 483 36,000  Level Minneapolis Center
08:47PM 40.1589 -98.0881 254° West 419 482 36,000  Level Minneapolis Center
08:48PM 40.1281 -98.2356 255° West 420 483 36,000  Level Minneapolis Center
08:49PM 40.0903 -98.4119 254° West 419 482 36,000  Level Minneapolis Center
08:50PM 40.0589 -98.5597 255° West 421 484 36,000  Level Minneapolis Center
08:51PM 40.0261 -98.7067 254° West 421 484 36,000  Level Minneapolis Center
08:52PM 39.9939 -98.8550 254° West 423 487 36,000  Level Minneapolis Center
08:53PM 39.9683 -98.9742 254° West 426 490 36,000  Level Denver Center
08:54PM 39.9289 -99.1511 254° West 424 488 36,000  Level Denver Center
08:55PM 39.8958 -99.2981 254° West 423 487 36,000  Level Denver Center
08:56PM 39.8631 -99.4469 254° West 425 489 36,000  Level Denver Center
08:57PM 39.8289 -99.5925 253° West 423 487 36,000  Level Denver Center
08:58PM 39.7950 -99.7400 253° West 424 488 36,000  Level Denver Center
08:59PM 39.7611 -99.8903 254° West 432 497 36,000  Level Denver Center
09:00PM 39.7269 -100.0378 253° West 431 496 36,000  Level Denver Center
09:01PM 39.6883 -100.2056 253° West 433 498 36,000  Level Denver Center
09:02PM 39.6542 -100.3481 253° West 431 496 36,000  Level Denver Center
09:03PM 39.6156 -100.5136 253° West 429 494 36,000  Level Denver Center
09:04PM 39.5817 -100.6556 253° West 429 494 36,000  Level Denver Center
09:05PM 39.5431 -100.8208 253° West 430 495 36,000  Level Denver Center
09:06PM 39.5089 -100.9619 253° West 429 494 36,000  Level Denver Center
09:07PM 39.4747 -101.1031 253° West 429 494 36,000  Level Denver Center
09:08PM 39.4347 -101.2683 253° West 430 495 36,000  Level Denver Center
09:09PM 39.4000 -101.4092 252° West 429 494 36,000  Level Denver Center
09:10PM 39.3600 -101.5742 253° West 430 495 36,000  Level Denver Center
09:11PM 39.3244 -101.7161 252° West 433 498 36,000  Level Denver Center
09:12PM 39.2847 -101.8694 252° West 431 496 36,000  Level Denver Center
09:13PM 39.2500 -102.0106 252° West 433 498 36,000  Level Denver Center
09:14PM 39.2086 -102.1725 252° West 429 494 36,000  Level Denver Center
09:15PM 39.1739 -102.3122 252° West 429 494 36,000  Level Denver Center
09:16PM 39.1325 -102.4739 252° West 427 491 36,000  Level Denver Center
09:17PM 39.0972 -102.6106 252° West 423 487 36,000  Level Denver Center
09:19PM 39.0544 -102.7747 251° West 425 489 36,000  Level Denver Center
09:20PM 39.0161 -102.9203 251° West 428 493 36,000  Level Denver Center
09:21PM 38.9778 -103.0664 251° West 430 495 36,000  Level Denver Center
09:22PM 38.9403 -103.2108 252° West 428 493 36,000  Level Denver Center
09:23PM 38.9017 -103.3556 251° West 428 493 36,000  Level Denver Center
09:24PM 38.8644 -103.4972 251° West 422 486 36,000  Level Denver Center
09:25PM 38.8158 -103.6775 251° West 418 481 36,000  Level Denver Center
09:26PM 38.7853 -103.7903 251° West 421 484 36,000  Level Denver Center
09:27PM 38.7361 -103.9697 251° West 418 481 36,000  Level Denver Center
09:28PM 38.6881 -104.1472 251° West 419 482 36,000  Level Denver Center
09:29PM 38.6500 -104.2867 251° West 417 480 36,000  Level Denver Center
09:30PM 38.6111 -104.4258 250° West 415 478 36,000  Level Denver Center
09:31PM 38.5731 -104.5633 251° West 412 474 36,000  Level Denver Center
09:32PM 38.5350 -104.7011 251° West 411 473 36,000  Level Denver Center
09:33PM 38.4953 -104.8406 250° West 415 478 36,000  Level Denver Center
09:34PM 38.4492 -105.0064 250° West 415 478 36,000  Level Denver Center
09:35PM 38.4092 -105.1456 250° West 417 480 36,000  Level Denver Center
09:36PM 38.3700 -105.2842 250° West 418 481 36,000  Level Denver Center
09:37PM 38.3283 -105.4278 250° West 417 480 36,000  Level Denver Center
09:38PM 38.2897 -105.5622 250° West 421 484 36,000  Level Denver Center
09:40PM 38.2450 -105.7147 250° West 416 479 36,000  Level Denver Center
09:41PM 38.2061 -105.8486 250° West 420 483 36,000  Level Denver Center
09:42PM 38.1919 -106.0114 264° West 420 483 36,000  Level Denver Center
09:43PM 38.1889 -106.1542 268° West 420 483 36,000  Level Denver Center
09:44PM 38.1742 -106.3125 263° West 416 479 36,000  Level Denver Center
09:45PM 38.1325 -106.4528 249° West 423 487 36,000  Level Denver Center
09:46PM 38.0894 -106.5931 249° West 426 490 36,000  Level Denver Center
09:47PM 38.0400 -106.7478 248° West 425 489 36,000  Level Denver Center
09:48PM 37.9986 -106.8817 249° West 425 489 36,000  Level Denver Center
09:49PM 37.9489 -107.0353 248° West 422 486 36,000  Level Denver Center
09:50PM 37.9072 -107.1672 248° West 420 483 36,000  Level Denver Center
09:51PM 37.8597 -107.3142 248° West 418 481 36,000  Level Denver Center
09:52PM 37.8172 -107.4456 248° West 421 484 36,000  Level Denver Center
09:53PM 37.7678 -107.5967 248° West 418 481 36,000  Level Denver Center
09:54PM 37.7181 -107.7503 248° West 423 487 36,000  Level Denver Center
09:55PM 37.6675 -107.9019 247° West 421 484 36,000  Level Denver Center
09:56PM 37.6239 -108.0350 248° West 426 490 36,000  Level Denver Center
09:57PM 37.5731 -108.1889 247° West 426 490 36,000  Level Denver Center
09:58PM 37.5297 -108.3222 248° West 428 493 36,000  Level Denver Center
09:59PM 37.4778 -108.4733 247° West 424 488 36,000  Level Denver Center
10:00PM 37.4336 -108.6028 247° West 422 486 36,000  Level Denver Center
10:01PM 37.3819 -108.7561 247° West 425 489 36,000  Level Denver Center
10:02PM 37.3383 -108.8867 247° West 424 488 36,000  Level Denver Center
10:03PM 37.2933 -109.0150 246° West 421 484 36,000  Level Denver Center
10:04PM 37.2431 -109.1647 247° West 418 481 36,000  Level Denver Center
10:06PM 37.1992 -109.2917 247° West 416 479 36,000  Level Denver Center
10:07PM 37.1408 -109.4597 247° West 411 473 36,000  Level Denver Center
10:08PM 37.0903 -109.6075 247° West 413 475 36,000  Level Denver Center
10:09PM 37.0461 -109.7322 246° West 412 474 36,000  Level Denver Center
10:10PM 36.9939 -109.8794 246° West 413 475 36,000  Level Denver Center
10:11PM 36.9492 -110.0061 246° West 416 479 36,000  Level Denver Center
10:12PM 36.9047 -110.1322 246° West 416 479 36,000  Level Denver Center
10:13PM 36.8575 -110.2656 246° West 419 482 36,000  Level Denver Center
10:14PM 36.8003 -110.4244 246° West 417 480 36,000  Level Denver Center
10:15PM 36.7528 -110.5575 246° West 421 484 36,000  Level Denver Center
10:16PM 36.7144 -110.6647 246° West 423 487 36,000  Level Denver Center
10:17PM 36.6583 -110.8211 246° West 413 475 36,000  Level Denver Center
10:18PM 36.6106 -110.9517 246° West 412 474 36,000  Level Denver Center
10:19PM 36.5647 -111.0819 246° West 412 474 36,000  Level Denver Center
10:20PM 36.5136 -111.2139 244° Southwest 418 481 36,000  Level Denver Center
10:21PM 36.4578 -111.3675 246° West 411 473 36,000  Level Denver Center
10:22PM 36.4103 -111.4964 245° Southwest 410 472 36,000  Level Denver Center
10:23PM 36.3706 -111.5994 244° Southwest 411 473 36,000  Level Denver Center
10:24PM 36.3439 -111.6742 246° West 407 468 36,000  Level Los Angeles Center
10:25PM 36.2864 -111.8275 245° Southwest 408 470 36,000  Level Los Angeles Center
10:26PM 36.2369 -111.9567 245° Southwest 411 473 36,000  Level Los Angeles Center
10:27PM 36.1892 -112.0808 245° Southwest 417 480 36,000  Level Los Angeles Center
10:28PM 36.1417 -112.2097 246° West 416 479 36,000  Level Los Angeles Center
10:29PM 36.1000 -112.3178 245° Southwest 410 472 36,000  Level Los Angeles Center
10:30PM 36.0419 -112.4703 245° Southwest 409 471 36,000  Level Los Angeles Center
10:31PM 35.9839 -112.6208 245° Southwest 405 466 36,000  Level Los Angeles Center
10:32PM 35.9397 -112.7378 245° Southwest 411 473 36,000  Level Los Angeles Center
10:33PM 35.8908 -112.8633 244° Southwest 410 472 36,000  Level Los Angeles Center
10:34PM 35.8417 -112.9919 245° Southwest 418 481 36,000  Level Los Angeles Center
10:35PM 35.7931 -113.1178 245° Southwest 415 478 36,000  Level Los Angeles Center
10:36PM 35.7353 -113.2647 244° Southwest 404 465 36,000  Level Los Angeles Center
10:37PM 35.6872 -113.3869 244° Southwest 403 464 36,000  Level Los Angeles Center
10:38PM 35.6389 -113.5094 244° Southwest 404 465 36,000  Level Los Angeles Center
10:39PM 35.5889 -113.6333 244° Southwest 408 470 36,000  Level Los Angeles Center
10:40PM 35.5264 -113.7856 243° Southwest 417 480 36,000  Level Los Angeles Center
10:41PM 35.4756 -113.9100 243° Southwest 415 478 36,000  Level Los Angeles Center
10:42PM 35.4203 -114.0472 244° Southwest 409 471 36,000  Level Los Angeles Center
10:44PM 35.3678 -114.1719 243° Southwest 409 471 36,000  Level Los Angeles Center
10:45PM 35.3069 -114.3244 244° Southwest 413 475 36,000  Level Los Angeles Center
10:46PM 35.2553 -114.4492 243° Southwest 410 472 36,000  Level Los Angeles Center
10:47PM 35.2047 -114.5697 243° Southwest 401 461 36,000  Level Los Angeles Center
10:48PM 35.1528 -114.6931 243° Southwest 405 466 36,000  Level Los Angeles Center
10:49PM 35.1028 -114.8139 243° Southwest 399 459 36,000  Level Los Angeles Center
10:50PM 35.0419 -114.9603 243° Southwest 401 461 36,000  Level Los Angeles Center
10:51PM 34.9903 -115.0828 243° Southwest 403 464 36,000  Level Los Angeles Center
10:52PM 34.9383 -115.2047 243° Southwest 404 465 36,000  Level Los Angeles Center
10:53PM 34.8847 -115.3289 242° Southwest 410 472 36,000  Level Los Angeles Center
10:54PM 34.8322 -115.4550 243° Southwest 413 475 36,000 -540 Level Los Angeles Center
10:55PM 34.7761 -115.5864 243° Southwest 401 461 34,900 -1,080 Descending Los Angeles Center
10:56PM 34.7253 -115.7031 242° Southwest 392 451 33,800 -1,080 Descending Los Angeles Center
10:57PM 34.6758 -115.8178 242° Southwest 384 442 32,800 -1,020 Descending Los Angeles Center
10:58PM 34.6269 -115.9322 243° Southwest 382 440 31,800 -1,020 Descending Los Angeles Center
10:59PM 34.5783 -116.0431 242° Southwest 375 432 30,800 -1,020 Descending Los Angeles Center
11:00PM 34.5319 -116.1500 242° Southwest 363 418 29,800 -1,020 Descending Los Angeles Center
11:01PM 34.4858 -116.2547 242° Southwest 355 409 28,800 -1,020 Descending Los Angeles Center
11:02PM 34.4408 -116.3569 242° Southwest 345 397 27,800 -1,080 Descending Los Angeles Center
11:03PM 34.3872 -116.4794 242° Southwest 343 395 26,600 -1,140 Descending Los Angeles Center
11:04PM 34.3425 -116.5811 242° Southwest 342 394 25,500 -1,020 Descending Los Angeles Center
11:05PM 34.2964 -116.6839 242° Southwest 346 398 24,500 -1,020 Descending Los Angeles Center
11:06PM 34.2517 -116.7847 242° Southwest 341 392 23,500 -1,020 Descending Los Angeles Center
11:07PM 34.2078 -116.8856 242° Southwest 339 390 22,500 -1,200 Descending Los Angeles Center
11:08PM 34.1644 -116.9817 241° Southwest 326 375 21,100 -1,620 Descending Los Angeles Center
11:09PM 34.1178 -117.0858 242° Southwest 314 361 19,200 -1,620 Descending Los Angeles Center
11:10PM 34.1000 -117.1167 235° Southwest 306 352 19,000 -1,080 Descending Southern California TRACON
11:11PM 34.0667 -117.2000 244° Southwest 297 342 17,900 -1,440 Descending Southern California TRACON
11:12PM 34.0500 -117.3000 259° West 291 335 16,200 -1,680 Descending Southern California TRACON
11:13PM 34.0333 -117.3833 256° West 290 334 14,600 -1,500 Descending Southern California TRACON
11:14PM 34.0333 -117.4833 270° West 267 307 13,300 -1,380 Descending Southern California TRACON
11:15PM 34.0333 -117.5833 270° West 264 304 11,900 -1,440 Descending Southern California TRACON
11:16PM 34.0333 -117.6667 270° West 232 267 10,500 -1,260 Descending Southern California TRACON
11:17PM 34.0167 -117.7500 256° West 250 288 9,400 -1,200 Descending Southern California TRACON
11:18PM 34.0167 -117.8333 270° West 258 297 8,100 -1,200 Descending Southern California TRACON
11:19PM 34.0000 -117.9167 256° West 251 289 7,000 -1,020 Descending Southern California TRACON
11:20PM 34.0000 -118.0000 270° West 245 282 6,100 -900 Descending Southern California TRACON
11:21PM 33.9833 -118.0667 253° West 224 258 5,300 -900 Descending Southern California TRACON
11:22PM 33.9833 -118.1333 270° West 198 228 4,400 -1,020 Descending Southern California TRACON
11:23PM 33.9667 -118.2000 253° West 197 227 3,300 -1,080 Descending Southern California TRACON
11:24PM 33.9667 -118.2667 270° West 187 215 2,300 -900 Descending Southern California TRACON
11:25PM 33.9667 -118.3333 270° West 160 184 1,500 -900 Descending Southern California TRACON
11:26PM 33.9500 -118.3667 239° Southwest 138 159 600 -660 Descending Southern California TRACON
11:27PM 33.9508 -118.4278 271° West 147 169 100 -480 Descending Los Angeles Center
11:29PM 33.9425 -118.4081 259° West  Level Estimated